createdAt,value
2017-03-19T00:02:14.262Z,9.83
2017-03-19T00:07:17.004Z,9.78
2017-03-19T00:08:17.357Z,9.77
2017-03-19T00:09:17.096Z,9.78
2017-03-19T00:14:19.905Z,9.71
2017-03-19T00:15:14.580Z,9.72
2017-03-19T00:16:17.854Z,9.83
2017-03-19T00:22:18.335Z,9.82
2017-03-19T00:26:14.150Z,9.84
2017-03-19T00:27:19.065Z,9.81
2017-03-19T00:30:16.810Z,9.87
2017-03-19T00:31:19.661Z,9.89
2017-03-19T00:34:18.987Z,9.93
2017-03-19T00:36:17.811Z,9.93
2017-03-19T00:41:16.547Z,9.82
2017-03-19T00:44:14.719Z,9.76
2017-03-19T00:45:19.587Z,9.79
2017-03-19T00:46:17.600Z,9.71
2017-03-19T00:49:19.314Z,9.84
2017-03-19T00:53:19.337Z,9.75
2017-03-19T00:55:27.687Z,9.90
2017-03-19T00:59:18.969Z,9.84
2017-03-19T01:02:19.021Z,9.72
2017-03-19T01:09:14.914Z,9.80
2017-03-19T01:15:21.521Z,9.77
2017-03-19T01:21:20.984Z,9.75
2017-03-19T01:22:18.568Z,9.86
2017-03-19T01:23:17.221Z,9.73
2017-03-19T01:25:19.488Z,9.68
2017-03-19T01:26:18.193Z,9.80
2017-03-19T01:29:18.956Z,9.64
2017-03-19T01:30:17.952Z,9.76
2017-03-19T01:31:27.165Z,9.65
2017-03-19T01:35:19.382Z,9.72
2017-03-19T01:36:22.317Z,9.74
2017-03-19T01:37:17.995Z,9.76
2017-03-19T01:38:18.684Z,9.75
2017-03-19T01:39:18.430Z,9.64
2017-03-19T01:40:14.484Z,9.76
2017-03-19T01:43:18.391Z,9.69
2017-03-19T01:45:17.000Z,9.74
2017-03-19T01:46:20.378Z,9.73
2017-03-19T01:47:24.511Z,9.76
2017-03-19T01:48:14.498Z,9.75
2017-03-19T01:49:18.727Z,9.84
2017-03-19T01:50:13.517Z,9.80
2017-03-19T01:51:17.888Z,9.76
2017-03-19T01:52:18.509Z,9.76
2017-03-19T01:53:19.435Z,9.77
2017-03-19T01:54:13.550Z,9.82
2017-03-19T01:57:17.956Z,9.69
2017-03-19T01:58:17.982Z,9.64
2017-03-19T01:59:18.311Z,9.66
2017-03-19T02:01:20.217Z,9.63
2017-03-19T02:04:18.589Z,9.68
2017-03-19T02:05:23.796Z,9.72
2017-03-19T02:06:19.847Z,9.63
2017-03-19T02:10:17.573Z,9.48
2017-03-19T02:12:17.990Z,9.68
2017-03-19T02:13:18.162Z,9.63
2017-03-19T02:14:17.576Z,9.64
2017-03-19T02:15:17.875Z,9.59
2017-03-19T02:21:14.599Z,9.58
2017-03-19T02:22:20.774Z,9.71
2017-03-19T02:24:19.173Z,9.78
2017-03-19T02:25:14.305Z,9.77
2017-03-19T02:31:16.079Z,9.79
2017-03-19T02:32:18.439Z,9.81
2017-03-19T02:33:24.310Z,9.72
2017-03-19T02:34:16.805Z,9.73
2017-03-19T02:35:16.922Z,9.77
2017-03-19T02:42:19.546Z,9.65
2017-03-19T02:49:20.323Z,9.80
2017-03-19T02:50:19.426Z,9.79
2017-03-19T02:51:16.831Z,9.78
2017-03-19T03:00:23.195Z,9.71
2017-03-19T03:01:17.159Z,9.88
2017-03-19T03:02:19.217Z,9.88
2017-03-19T03:06:19.527Z,9.81
2017-03-19T03:07:26.600Z,9.75
2017-03-19T03:08:19.495Z,9.74
2017-03-19T03:09:14.632Z,9.79
2017-03-19T03:10:23.868Z,9.85
2017-03-19T03:28:13.177Z,9.71
2017-03-19T03:29:19.376Z,9.67
2017-03-19T03:32:18.438Z,9.77
2017-03-19T03:40:20.495Z,9.74
2017-03-19T03:41:21.427Z,9.77
2017-03-19T03:55:19.253Z,9.86
2017-03-19T03:56:16.850Z,9.95
2017-03-19T03:57:19.214Z,9.84
2017-03-19T03:58:13.530Z,9.86
2017-03-19T04:00:19.120Z,9.80
2017-03-19T04:01:19.217Z,9.82
2017-03-19T04:05:19.818Z,9.79
2017-03-19T04:06:19.502Z,9.77
2017-03-19T04:12:19.772Z,9.84
2017-03-19T04:14:13.564Z,9.77
2017-03-19T04:22:25.910Z,9.79
2017-03-19T04:27:18.793Z,9.75
2017-03-19T04:28:12.919Z,9.70
2017-03-19T04:32:16.987Z,9.72
2017-03-19T04:33:19.211Z,9.73
2017-03-19T04:34:18.177Z,9.75
2017-03-19T04:35:19.108Z,9.83
2017-03-19T04:36:20.581Z,9.87
2017-03-19T04:38:22.148Z,9.76
2017-03-19T04:41:18.890Z,9.86
2017-03-19T04:42:24.588Z,9.80
2017-03-19T04:45:25.016Z,9.90
2017-03-19T04:46:19.796Z,9.89
2017-03-19T04:47:22.093Z,10.02
2017-03-19T04:48:18.952Z,9.89
2017-03-19T04:55:17.557Z,9.75
2017-03-19T04:56:20.005Z,9.82
2017-03-19T04:57:19.746Z,9.77
2017-03-19T04:59:16.171Z,9.92
2017-03-19T05:00:17.012Z,9.87
2017-03-19T05:02:19.957Z,9.90
2017-03-19T05:03:18.093Z,9.92
2017-03-19T05:04:19.295Z,9.90
2017-03-19T05:05:18.669Z,9.94
2017-03-19T05:06:22.238Z,9.89
2017-03-19T05:07:22.848Z,9.90
2017-03-19T05:08:18.570Z,9.89
2017-03-19T05:09:12.861Z,9.88
2017-03-19T05:18:18.966Z,10.02
2017-03-19T05:24:19.806Z,9.96
2017-03-19T05:25:23.132Z,9.86
2017-03-19T05:28:18.764Z,9.91
2017-03-19T05:29:19.166Z,9.99
2017-03-19T05:30:26.752Z,10.02
2017-03-19T05:31:19.957Z,10.02
2017-03-19T05:33:16.198Z,10.01
2017-03-19T05:37:21.071Z,9.94
2017-03-19T05:38:12.351Z,9.94
2017-03-19T05:40:18.587Z,10.06
2017-03-19T05:41:18.224Z,10.04
2017-03-19T05:44:18.346Z,9.90
2017-03-19T05:46:18.669Z,9.94
2017-03-19T05:47:18.673Z,10.03
2017-03-19T05:48:18.772Z,9.99
2017-03-19T05:49:22.354Z,9.89
2017-03-19T05:50:19.366Z,9.86
2017-03-19T05:51:25.774Z,10.00
2017-03-19T05:53:21.479Z,9.96
2017-03-19T05:54:16.594Z,9.95
2017-03-19T05:57:17.977Z,10.00
2017-03-19T05:59:20.738Z,9.94
2017-03-19T06:03:19.579Z,9.98
2017-03-19T06:06:18.493Z,10.13
2017-03-19T06:11:19.270Z,10.13
2017-03-19T06:12:18.501Z,10.01
2017-03-19T06:13:19.559Z,10.26
2017-03-19T06:17:19.069Z,10.15
2017-03-19T06:18:16.735Z,10.06
2017-03-19T06:19:19.806Z,10.17
2017-03-19T06:20:12.130Z,10.13
2017-03-19T06:21:19.926Z,10.15
2017-03-19T06:22:20.656Z,10.12
2017-03-19T06:27:25.033Z,10.16
2017-03-19T06:28:19.567Z,10.26
2017-03-19T06:29:19.575Z,10.22
2017-03-19T06:30:17.815Z,10.24
2017-03-19T06:31:17.095Z,10.16
2017-03-19T06:32:12.335Z,10.16
2017-03-19T06:40:19.522Z,10.38
2017-03-19T06:41:19.511Z,10.32
2017-03-19T06:42:12.591Z,10.31
2017-03-19T06:43:22.521Z,10.35
2017-03-19T06:44:18.758Z,10.30
2017-03-19T06:45:18.142Z,10.25
2017-03-19T06:46:21.593Z,10.35
2017-03-19T06:51:19.841Z,10.28
2017-03-19T06:52:18.734Z,10.41
2017-03-19T06:53:20.858Z,10.36
2017-03-19T06:54:18.935Z,10.50
2017-03-19T06:55:19.825Z,10.42
2017-03-19T06:56:19.351Z,10.39
2017-03-19T07:08:13.561Z,10.56
2017-03-19T07:09:25.066Z,10.50
2017-03-19T07:11:16.629Z,10.57
2017-03-19T07:12:11.660Z,10.72
2017-03-19T07:14:19.556Z,10.70
2017-03-19T07:15:17.359Z,10.53
2017-03-19T07:16:24.603Z,10.65
2017-03-19T07:25:20.042Z,10.79
2017-03-19T07:26:12.793Z,10.85
2017-03-19T07:27:19.658Z,10.76
2017-03-19T07:32:24.556Z,10.80
2017-03-19T07:33:19.422Z,10.85
2017-03-19T07:34:19.539Z,10.85
2017-03-19T07:36:20.435Z,10.78
2017-03-19T07:37:19.112Z,10.87
2017-03-19T07:40:24.583Z,11.05
2017-03-19T07:43:19.307Z,10.95
2017-03-19T07:44:20.332Z,11.02
2017-03-19T07:54:13.121Z,11.36
2017-03-19T07:56:19.156Z,11.34
2017-03-19T07:57:19.618Z,11.23
2017-03-19T08:04:19.547Z,11.14
2017-03-19T08:05:10.658Z,11.27
2017-03-19T08:07:16.854Z,11.30
2017-03-19T08:08:18.314Z,11.46
2017-03-19T08:14:19.643Z,11.43
2017-03-19T08:15:23.803Z,11.46
2017-03-19T08:25:14.177Z,11.54
2017-03-19T08:26:10.009Z,11.60
2017-03-19T08:27:16.413Z,11.55
2017-03-19T08:28:21.432Z,11.42
2017-03-19T08:29:17.682Z,11.34
2017-03-19T08:30:19.057Z,11.42
2017-03-19T08:33:14.195Z,11.39
2017-03-19T08:34:13.649Z,11.60
2017-03-19T08:35:11.335Z,11.59
2017-03-19T08:36:22.588Z,11.46
2017-03-19T08:38:19.677Z,11.56
2017-03-19T08:39:19.653Z,11.53
2017-03-19T08:40:18.769Z,11.41
2017-03-19T08:42:20.642Z,11.53
2017-03-19T08:48:22.589Z,11.65
2017-03-19T08:49:19.674Z,11.81
2017-03-19T08:50:16.624Z,11.88
2017-03-19T08:51:14.152Z,11.75
2017-03-19T08:52:11.756Z,11.74
2017-03-19T08:54:19.989Z,11.69
2017-03-19T08:55:18.089Z,11.78
2017-03-19T08:56:26.958Z,11.81
2017-03-19T08:57:20.631Z,11.79
2017-03-19T08:58:27.077Z,11.87
2017-03-19T09:06:19.027Z,11.84
2017-03-19T09:07:13.126Z,11.96
2017-03-19T09:10:17.284Z,12.25
2017-03-19T09:11:21.436Z,12.22
2017-03-19T09:12:24.148Z,12.26
2017-03-19T09:13:13.679Z,12.39
2017-03-19T09:15:18.463Z,12.13
2017-03-19T09:18:19.590Z,12.12
2017-03-19T09:19:16.720Z,12.13
2017-03-19T09:20:18.889Z,12.18
2017-03-19T09:21:19.821Z,12.20
2017-03-19T09:22:19.376Z,12.26
2017-03-19T09:25:19.463Z,12.41
2017-03-19T09:26:13.510Z,12.43
2017-03-19T09:28:19.633Z,12.47
2017-03-19T09:30:18.848Z,12.62
2017-03-19T09:34:18.967Z,12.59
2017-03-19T09:36:19.878Z,12.75
2017-03-19T09:37:17.886Z,12.79
2017-03-19T09:38:12.672Z,12.55
2017-03-19T09:42:19.675Z,12.73
2017-03-19T09:43:27.443Z,12.57
2017-03-19T09:44:12.083Z,12.80
2017-03-19T09:46:19.939Z,12.60
2017-03-19T09:47:14.002Z,12.73
2017-03-19T09:48:16.869Z,12.74
2017-03-19T09:49:26.917Z,12.85
2017-03-19T09:50:12.051Z,12.77
2017-03-19T09:53:13.885Z,12.76
2017-03-19T09:54:17.706Z,12.88
2017-03-19T09:55:18.885Z,12.81
2017-03-19T09:56:18.608Z,12.68
2017-03-19T09:57:19.108Z,12.82
2017-03-19T09:58:19.970Z,12.96
2017-03-19T09:59:19.428Z,13.09
2017-03-19T10:02:13.905Z,13.19
2017-03-19T10:03:11.585Z,12.86
2017-03-19T10:04:09.087Z,12.97
2017-03-19T10:05:14.608Z,13.21
2017-03-19T10:06:15.471Z,13.34
2017-03-19T10:08:48.923Z,13.40
2017-03-19T10:09:15.066Z,13.36
2017-03-19T10:10:25.009Z,13.28
2017-03-19T10:11:16.565Z,13.23
2017-03-19T10:12:12.273Z,13.15
2017-03-19T10:15:18.998Z,12.91
2017-03-19T10:17:12.403Z,12.82
2017-03-19T10:18:19.564Z,12.91
2017-03-19T10:19:16.571Z,12.88
2017-03-19T10:20:16.851Z,12.99
2017-03-19T10:21:13.459Z,12.76
2017-03-19T10:22:19.181Z,12.71
2017-03-19T10:23:19.883Z,12.67
2017-03-19T10:24:18.944Z,12.70
2017-03-19T10:25:12.649Z,12.62
2017-03-19T10:26:19.478Z,12.61
2017-03-19T10:27:25.581Z,12.65
2017-03-19T10:28:19.474Z,12.61
2017-03-19T10:29:19.509Z,12.67
2017-03-19T10:33:19.194Z,13.02
2017-03-19T10:35:20.273Z,13.13
2017-03-19T10:36:17.849Z,13.30
2017-03-19T10:37:21.616Z,13.00
2017-03-19T10:38:20.000Z,13.16
2017-03-19T10:39:13.512Z,12.99
2017-03-19T10:40:19.942Z,13.14
2017-03-19T10:41:19.817Z,13.09
2017-03-19T10:42:20.146Z,13.06
2017-03-19T10:43:19.196Z,13.04
2017-03-19T10:50:11.634Z,13.73
2017-03-19T10:52:17.763Z,13.61
2017-03-19T10:53:20.050Z,13.51
2017-03-19T10:54:16.905Z,13.35
2017-03-19T10:55:17.582Z,13.55
2017-03-19T10:57:13.678Z,13.65
2017-03-19T10:58:19.757Z,13.93
2017-03-19T10:59:19.993Z,13.61
2017-03-19T11:02:19.016Z,13.86
2017-03-19T11:04:18.358Z,13.97
2017-03-19T11:05:20.230Z,13.98
2017-03-19T11:06:17.825Z,14.03
2017-03-19T11:08:12.035Z,14.09
2017-03-19T11:09:19.869Z,13.82
2017-03-19T11:10:19.009Z,13.86
2017-03-19T11:12:27.974Z,14.28
2017-03-19T11:13:19.859Z,14.46
2017-03-19T11:14:12.625Z,14.51
2017-03-19T11:15:13.833Z,14.70
2017-03-19T11:16:18.448Z,14.57
2017-03-19T11:17:17.096Z,14.55
2017-03-19T11:18:20.594Z,14.29
2017-03-19T11:19:12.240Z,13.82
2017-03-19T11:20:19.989Z,13.79
2017-03-19T11:21:16.285Z,13.65
2017-03-19T11:22:17.436Z,13.49
2017-03-19T11:23:27.583Z,13.46
2017-03-19T11:24:24.335Z,13.50
2017-03-19T11:27:18.801Z,13.32
2017-03-19T11:28:17.084Z,13.40
2017-03-19T11:29:17.547Z,13.34
2017-03-19T11:33:18.329Z,13.38
2017-03-19T11:34:19.317Z,13.23
2017-03-19T11:37:11.583Z,13.38
2017-03-19T11:38:18.937Z,13.26
2017-03-19T11:39:18.372Z,13.42
2017-03-19T11:42:20.056Z,13.41
2017-03-19T11:43:18.707Z,13.38
2017-03-19T11:44:23.559Z,13.47
2017-03-19T11:45:20.341Z,13.39
2017-03-19T11:46:19.285Z,13.31
2017-03-19T11:47:18.547Z,13.35
2017-03-19T11:48:19.903Z,13.34
2017-03-19T11:49:19.899Z,13.33
2017-03-19T11:50:26.330Z,13.45
2017-03-19T11:51:20.237Z,13.50
2017-03-19T11:52:19.388Z,13.43
2017-03-19T11:54:18.750Z,13.41
2017-03-19T11:55:11.970Z,13.47
2017-03-19T11:56:22.410Z,13.39
2017-03-19T11:58:19.479Z,13.34
2017-03-19T11:59:24.507Z,13.36
2017-03-19T12:00:12.266Z,13.45
2017-03-19T12:01:22.794Z,13.48
2017-03-19T12:02:19.090Z,13.36
2017-03-19T12:03:17.605Z,13.43
2017-03-19T12:06:19.805Z,13.57
2017-03-19T12:07:22.640Z,13.69
2017-03-19T12:08:12.135Z,13.76
2017-03-19T12:09:18.932Z,13.86
2017-03-19T12:10:18.833Z,14.04
2017-03-19T12:11:12.473Z,13.87
2017-03-19T12:13:14.033Z,14.25
2017-03-19T12:14:19.123Z,14.28
2017-03-19T12:15:19.100Z,14.34
2017-03-19T12:16:25.417Z,14.10
2017-03-19T12:17:12.053Z,14.09
2017-03-19T12:18:12.262Z,14.03
2017-03-19T12:19:22.658Z,13.90
2017-03-19T12:20:18.144Z,13.97
2017-03-19T12:21:11.598Z,14.02
2017-03-19T12:22:20.028Z,13.90
2017-03-19T12:23:23.567Z,14.03
2017-03-19T12:24:12.518Z,14.11
2017-03-19T12:25:18.802Z,14.07
2017-03-19T12:26:18.477Z,13.98
2017-03-19T12:27:18.666Z,14.03
2017-03-19T12:28:19.278Z,14.07
2017-03-19T12:29:18.870Z,14.05
2017-03-19T12:30:17.495Z,14.02
2017-03-19T12:31:22.290Z,13.99
2017-03-19T12:32:21.631Z,14.09
2017-03-19T12:33:20.133Z,14.15
2017-03-19T12:34:23.809Z,14.28
2017-03-19T12:35:18.866Z,14.11
2017-03-19T12:37:18.523Z,14.01
2017-03-19T12:38:19.187Z,14.08
2017-03-19T12:39:21.537Z,14.11
2017-03-19T12:40:27.320Z,14.21
2017-03-19T12:43:18.842Z,14.17
2017-03-19T12:44:17.926Z,14.46
2017-03-19T12:45:19.216Z,14.60
2017-03-19T12:46:24.670Z,14.68
2017-03-19T12:47:38.352Z,14.55
2017-03-19T12:51:24.321Z,14.44
2017-03-19T12:53:20.424Z,14.30
2017-03-19T12:54:11.984Z,14.28
2017-03-19T12:56:24.677Z,14.19
2017-03-19T12:57:17.759Z,14.20
2017-03-19T12:58:24.531Z,14.15
2017-03-19T12:59:23.988Z,14.29
2017-03-19T13:00:18.884Z,14.31
2017-03-19T13:01:25.318Z,14.20
2017-03-19T13:02:17.628Z,14.18
2017-03-19T13:03:19.129Z,14.14
2017-03-19T13:04:19.178Z,14.16
2017-03-19T13:05:19.450Z,14.16
2017-03-19T13:07:20.120Z,14.04
2017-03-19T13:09:19.804Z,14.23
2017-03-19T13:10:19.848Z,14.49
2017-03-19T13:11:19.181Z,14.37
2017-03-19T13:12:18.936Z,14.24
2017-03-19T13:13:19.038Z,14.48
2017-03-19T13:17:23.762Z,14.41
2017-03-19T13:18:19.727Z,14.22
2017-03-19T13:20:18.918Z,14.20
2017-03-19T13:21:35.183Z,14.23
2017-03-19T13:22:14.280Z,14.20
2017-03-19T13:23:10.487Z,14.26
2017-03-19T13:24:15.545Z,14.26
2017-03-19T13:25:18.172Z,14.42
2017-03-19T13:26:19.597Z,14.56
2017-03-19T13:29:19.553Z,14.96
2017-03-19T13:32:12.802Z,14.91
2017-03-19T13:33:20.935Z,15.04
2017-03-19T13:34:25.017Z,14.94
2017-03-19T13:35:19.074Z,14.79
2017-03-19T13:37:19.977Z,15.06
2017-03-19T13:38:14.010Z,14.81
2017-03-19T13:39:25.548Z,14.75
2017-03-19T13:40:14.404Z,14.80
2017-03-19T13:41:17.651Z,14.78
2017-03-19T13:42:26.950Z,14.78
2017-03-19T13:43:14.006Z,14.72
2017-03-19T13:44:20.561Z,14.70
2017-03-19T13:45:23.577Z,14.76
2017-03-19T13:46:19.659Z,14.78
2017-03-19T13:48:22.865Z,14.77
2017-03-19T13:49:19.822Z,14.83
2017-03-19T13:50:18.868Z,14.67
2017-03-19T13:51:26.848Z,14.50
2017-03-19T13:52:18.817Z,14.45
2017-03-19T13:53:13.905Z,14.42
2017-03-19T13:56:20.678Z,14.37
2017-03-19T13:57:23.151Z,14.46
2017-03-19T13:58:19.788Z,14.49
2017-03-19T13:59:19.152Z,14.40
2017-03-19T14:01:19.350Z,14.45
2017-03-19T14:02:19.078Z,14.43
2017-03-19T14:03:23.974Z,14.28
2017-03-19T14:04:17.316Z,14.20
2017-03-19T14:06:20.448Z,14.29
2017-03-19T14:07:19.739Z,14.27
2017-03-19T14:08:18.922Z,14.23
2017-03-19T14:09:19.380Z,14.24
2017-03-19T14:10:22.628Z,14.42
2017-03-19T14:13:19.348Z,14.72
2017-03-19T14:14:17.748Z,14.76
2017-03-19T14:15:19.832Z,14.80
2017-03-19T14:17:14.489Z,14.78
2017-03-19T14:19:19.307Z,14.67
2017-03-19T14:20:18.455Z,14.67
2017-03-19T14:21:19.005Z,14.81
2017-03-19T14:22:14.094Z,14.86
2017-03-19T14:23:19.546Z,15.00
2017-03-19T14:24:18.717Z,15.10
2017-03-19T14:27:25.107Z,15.06
2017-03-19T14:28:26.201Z,15.06
2017-03-19T14:29:19.104Z,15.00
2017-03-19T14:32:24.618Z,14.98
2017-03-19T14:33:19.074Z,15.14
2017-03-19T14:34:19.134Z,14.98
2017-03-19T14:35:11.993Z,15.02
2017-03-19T14:37:20.566Z,14.85
2017-03-19T14:38:18.391Z,14.81
2017-03-19T14:40:23.198Z,14.73
2017-03-19T14:41:19.028Z,14.75
2017-03-19T14:42:21.102Z,14.78
2017-03-19T14:43:18.300Z,14.97
2017-03-19T14:44:22.990Z,14.92
2017-03-19T14:46:13.034Z,15.13
2017-03-19T14:47:19.527Z,15.08
2017-03-19T14:49:20.159Z,14.84
2017-03-19T14:51:19.649Z,14.90
2017-03-19T14:55:15.461Z,14.90
2017-03-19T14:56:23.100Z,14.96
2017-03-19T14:57:17.161Z,15.00
2017-03-19T14:58:14.309Z,14.97
2017-03-19T15:01:27.434Z,14.87
2017-03-19T15:02:21.063Z,14.87
2017-03-19T15:06:25.160Z,14.78
2017-03-19T15:07:21.734Z,14.77
2017-03-19T15:08:19.115Z,14.80
2017-03-19T15:09:19.911Z,14.82
2017-03-19T15:10:15.649Z,14.74
2017-03-19T15:11:19.597Z,14.82
2017-03-19T15:13:19.312Z,14.82
2017-03-19T15:15:19.848Z,14.78
2017-03-19T15:17:20.011Z,14.78
2017-03-19T15:18:12.175Z,14.74
2017-03-19T15:19:25.775Z,14.71
2017-03-19T15:20:20.974Z,14.77
2017-03-19T15:21:20.503Z,14.81
2017-03-19T15:22:19.281Z,14.73
2017-03-19T15:23:19.821Z,14.71
2017-03-19T15:24:19.389Z,14.69
2017-03-19T15:25:20.140Z,14.73
2017-03-19T15:26:20.155Z,14.66
2017-03-19T15:27:19.775Z,14.69
2017-03-19T15:28:19.448Z,14.74
2017-03-19T15:29:17.945Z,14.68
2017-03-19T15:30:18.063Z,14.69
2017-03-19T15:33:19.331Z,14.63
2017-03-19T15:34:19.467Z,14.62
2017-03-19T15:38:19.328Z,14.64
2017-03-19T15:40:26.511Z,14.62
2017-03-19T15:41:20.093Z,14.56
2017-03-19T15:42:17.462Z,14.51
2017-03-19T15:43:12.470Z,14.49
2017-03-19T15:44:20.661Z,14.45
2017-03-19T15:46:18.850Z,14.42
2017-03-19T15:47:19.124Z,14.46
2017-03-19T15:48:20.446Z,14.38
2017-03-19T15:53:19.217Z,14.36
2017-03-19T15:56:16.807Z,14.45
2017-03-19T15:57:13.495Z,14.41
2017-03-19T15:58:17.645Z,14.39
2017-03-19T15:59:18.825Z,14.41
2017-03-19T16:01:11.935Z,14.41
2017-03-19T16:02:20.139Z,14.42
2017-03-19T16:03:19.646Z,14.35
2017-03-19T16:05:19.870Z,14.33
2017-03-19T16:06:19.499Z,14.34
2017-03-19T16:07:11.948Z,14.37
2017-03-19T16:08:11.624Z,14.38
2017-03-19T16:09:24.891Z,14.32
2017-03-19T16:10:23.155Z,14.25
2017-03-19T16:11:19.540Z,14.27
2017-03-19T16:12:19.135Z,14.27
2017-03-19T16:14:19.505Z,14.25
2017-03-19T16:16:19.461Z,14.27
2017-03-19T16:19:21.924Z,14.27
2017-03-19T16:20:22.178Z,14.28
2017-03-19T16:26:22.031Z,14.21
2017-03-19T16:27:11.986Z,14.16
2017-03-19T16:28:20.144Z,14.17
2017-03-19T16:29:19.904Z,14.17
2017-03-19T16:30:17.938Z,14.15
2017-03-19T16:31:17.434Z,14.14
2017-03-19T16:34:23.272Z,14.14
2017-03-19T16:36:18.939Z,14.14
2017-03-19T16:37:18.857Z,14.13
2017-03-19T16:38:20.196Z,14.16
2017-03-19T16:39:18.994Z,14.14
2017-03-19T16:40:17.130Z,14.12
2017-03-19T16:41:11.912Z,14.12
2017-03-19T16:42:19.503Z,14.09
2017-03-19T16:43:19.018Z,14.09
2017-03-19T16:45:17.896Z,14.07
2017-03-19T16:46:20.337Z,14.07
2017-03-19T16:47:19.221Z,14.04
2017-03-19T16:48:20.273Z,14.05
2017-03-19T16:49:14.507Z,14.04
2017-03-19T16:50:20.611Z,14.03
2017-03-19T16:51:12.778Z,14.01
2017-03-19T16:52:14.437Z,14.02
2017-03-19T16:53:20.255Z,13.97
2017-03-19T16:56:14.176Z,13.96
2017-03-19T16:57:18.882Z,13.93
2017-03-19T16:58:19.179Z,13.91
2017-03-19T16:59:14.411Z,13.90
2017-03-19T17:00:12.317Z,13.90
2017-03-19T17:01:25.018Z,13.90
2017-03-19T17:03:19.144Z,13.89
2017-03-19T17:04:20.848Z,13.90
2017-03-19T17:05:12.378Z,13.90
2017-03-19T17:06:19.266Z,13.88
2017-03-19T17:07:17.619Z,13.87
2017-03-19T17:08:18.904Z,13.86
2017-03-19T17:09:12.859Z,13.86
2017-03-19T17:10:19.262Z,13.87
2017-03-19T17:11:19.536Z,13.88
2017-03-19T17:12:27.438Z,13.87
2017-03-19T17:13:18.203Z,13.87
2017-03-19T17:15:18.296Z,13.86
2017-03-19T17:16:25.331Z,13.85
2017-03-19T17:17:22.976Z,13.83
2017-03-19T17:18:18.790Z,13.82
2017-03-19T17:20:17.625Z,13.82
2017-03-19T17:21:14.250Z,13.84
2017-03-19T17:24:19.997Z,13.80
2017-03-19T17:25:18.924Z,13.80
2017-03-19T17:26:18.724Z,13.82
2017-03-19T17:27:12.812Z,13.81
2017-03-19T17:28:20.415Z,13.79
2017-03-19T17:29:20.719Z,13.78
2017-03-19T17:30:12.425Z,13.77
2017-03-19T17:31:12.544Z,13.76
2017-03-19T17:32:10.899Z,13.75
2017-03-19T17:33:27.986Z,13.75
2017-03-19T17:34:27.583Z,13.76
2017-03-19T17:37:24.260Z,13.77
2017-03-19T17:38:23.121Z,13.76
2017-03-19T17:39:19.239Z,13.78
2017-03-19T17:40:14.176Z,13.77
2017-03-19T17:41:19.843Z,13.78
2017-03-19T17:42:19.630Z,13.77
2017-03-19T17:43:20.647Z,13.77
2017-03-19T17:44:18.748Z,13.77
2017-03-19T17:45:18.136Z,13.78
2017-03-19T17:46:19.540Z,13.76
2017-03-19T17:47:20.683Z,13.75
2017-03-19T17:48:12.884Z,13.74
2017-03-19T17:50:19.274Z,13.75
2017-03-19T17:51:25.576Z,13.74
2017-03-19T17:52:21.587Z,13.74
2017-03-19T17:53:16.884Z,13.73
2017-03-19T17:54:24.590Z,13.73
2017-03-19T17:55:28.607Z,13.72
2017-03-19T17:56:23.985Z,13.71
2017-03-19T17:57:27.826Z,13.71
2017-03-19T17:59:30.253Z,13.71
2017-03-19T18:00:28.855Z,13.71
2017-03-19T18:02:18.366Z,13.71
2017-03-19T18:03:19.651Z,13.69
2017-03-19T18:04:19.065Z,13.67
2017-03-19T18:05:19.653Z,13.68
2017-03-19T18:06:23.845Z,13.68
2017-03-19T18:07:18.886Z,13.69
2017-03-19T18:08:21.778Z,13.69
2017-03-19T18:09:18.712Z,13.70
2017-03-19T18:10:20.370Z,13.68
2017-03-19T18:11:14.465Z,13.69
2017-03-19T18:12:19.341Z,13.66
2017-03-19T18:13:12.520Z,13.67
2017-03-19T18:14:19.171Z,13.67
2017-03-19T18:15:17.836Z,13.67
2017-03-19T18:16:11.718Z,13.66
2017-03-19T18:17:20.134Z,13.64
2017-03-19T18:18:19.574Z,13.64
2017-03-19T18:19:12.228Z,13.65
2017-03-19T18:20:25.514Z,13.63
2017-03-19T18:21:21.576Z,13.62
2017-03-19T18:22:12.510Z,13.62
2017-03-19T18:23:18.052Z,13.59
2017-03-19T18:24:25.207Z,13.60
2017-03-19T18:25:20.250Z,13.58
2017-03-19T18:26:18.776Z,13.60
2017-03-19T18:27:11.838Z,13.58
2017-03-19T18:28:19.506Z,13.56
2017-03-19T18:29:20.531Z,13.57
2017-03-19T18:30:19.717Z,13.58
2017-03-19T18:31:19.711Z,13.58
2017-03-19T18:32:17.685Z,13.57
2017-03-19T18:33:19.045Z,13.57
2017-03-19T18:34:21.169Z,13.57
2017-03-19T18:35:19.833Z,13.56
2017-03-19T18:36:20.622Z,13.55
2017-03-19T18:37:19.739Z,13.52
2017-03-19T18:38:19.341Z,13.50
2017-03-19T18:39:19.639Z,13.50
2017-03-19T18:40:21.582Z,13.51
2017-03-19T18:41:18.128Z,13.52
2017-03-19T18:42:21.162Z,13.53
2017-03-19T18:43:21.887Z,13.51
2017-03-19T18:44:20.635Z,13.51
2017-03-19T18:45:18.576Z,13.49
2017-03-19T18:46:19.268Z,13.49
2017-03-19T18:47:20.954Z,13.45
2017-03-19T18:48:24.056Z,13.44
2017-03-19T18:49:19.398Z,13.41
2017-03-19T18:50:17.719Z,13.40
2017-03-19T18:51:17.799Z,13.35
2017-03-19T18:52:12.836Z,13.32
2017-03-19T18:53:22.410Z,13.32
2017-03-19T18:54:17.991Z,13.32
2017-03-19T18:55:13.166Z,13.30
2017-03-19T18:56:19.669Z,13.29
2017-03-19T18:57:13.559Z,13.29
2017-03-19T18:58:19.371Z,13.28
2017-03-19T18:59:20.477Z,13.26
2017-03-19T19:00:19.464Z,13.28
2017-03-19T19:01:20.580Z,13.28
2017-03-19T19:02:20.990Z,13.30
2017-03-19T19:03:19.555Z,13.26
2017-03-19T19:04:20.050Z,13.25
2017-03-19T19:05:17.686Z,13.22
2017-03-19T19:06:20.136Z,13.26
2017-03-19T19:07:17.720Z,13.21
2017-03-19T19:08:20.575Z,13.20
2017-03-19T19:09:16.346Z,13.21
2017-03-19T19:11:27.733Z,13.16
2017-03-19T19:12:22.729Z,13.14
2017-03-19T19:13:18.803Z,13.14
2017-03-19T19:14:25.410Z,13.17
2017-03-19T19:15:14.692Z,13.13
2017-03-19T19:16:19.105Z,13.16
2017-03-19T19:17:27.864Z,13.11
2017-03-19T19:18:17.449Z,13.08
2017-03-19T19:19:34.694Z,13.08
2017-03-19T19:20:20.192Z,13.06
2017-03-19T19:21:22.974Z,13.09
2017-03-19T19:22:19.354Z,13.08
2017-03-19T19:23:19.321Z,13.13
2017-03-19T19:24:19.429Z,13.09
2017-03-19T19:25:19.423Z,13.09
2017-03-19T19:26:20.385Z,13.09
2017-03-19T19:27:21.511Z,13.11
2017-03-19T19:28:18.758Z,13.07
2017-03-19T19:29:13.876Z,13.05
2017-03-19T19:30:19.584Z,13.07
2017-03-19T19:31:18.958Z,13.08
2017-03-19T19:32:18.873Z,13.07
2017-03-19T19:33:11.944Z,13.04
2017-03-19T19:34:20.169Z,13.04
2017-03-19T19:35:19.387Z,13.02
2017-03-19T19:36:25.410Z,13.03
2017-03-19T19:37:23.735Z,13.05
2017-03-19T19:38:25.335Z,13.07
2017-03-19T19:39:19.113Z,13.06
2017-03-19T19:40:22.444Z,13.07
2017-03-19T19:41:18.475Z,13.04
2017-03-19T19:43:19.634Z,13.04
2017-03-19T19:44:19.242Z,13.03
2017-03-19T19:45:19.334Z,13.06
2017-03-19T19:46:17.466Z,13.03
2017-03-19T19:47:31.459Z,13.04
2017-03-19T19:48:14.201Z,13.04
2017-03-19T19:49:14.636Z,13.07
2017-03-19T19:50:19.637Z,13.07
2017-03-19T19:51:18.447Z,13.12
2017-03-19T19:52:19.937Z,13.07
2017-03-19T19:55:19.363Z,13.05
2017-03-19T19:56:19.189Z,13.07
2017-03-19T19:57:20.503Z,13.06
2017-03-19T19:58:13.611Z,13.08
2017-03-19T19:59:19.040Z,13.12
2017-03-19T20:00:19.885Z,13.07
2017-03-19T20:01:14.410Z,13.06
2017-03-19T20:02:18.974Z,13.02
2017-03-19T20:03:14.031Z,13.05
2017-03-19T20:04:19.531Z,12.99
2017-03-19T20:05:18.884Z,13.03
2017-03-19T20:06:14.695Z,13.00
2017-03-19T20:07:19.137Z,13.00
2017-03-19T20:08:20.277Z,13.02
2017-03-19T20:09:25.201Z,12.99
2017-03-19T20:10:09.655Z,13.00
2017-03-19T20:11:27.666Z,12.99
2017-03-19T20:12:17.506Z,13.00
2017-03-19T20:13:21.847Z,13.01
2017-03-19T20:14:23.148Z,12.97
2017-03-19T20:15:15.185Z,12.98
2017-03-19T20:16:13.417Z,12.98
2017-03-19T20:17:20.629Z,13.01
2017-03-19T20:18:17.735Z,13.05
2017-03-19T20:20:19.055Z,12.97
2017-03-19T20:21:25.691Z,12.99
2017-03-19T20:22:18.751Z,13.00
2017-03-19T20:23:14.718Z,12.97
2017-03-19T20:24:19.223Z,12.99
2017-03-19T20:25:22.251Z,12.98
2017-03-19T20:26:18.724Z,12.96
2017-03-19T20:27:19.621Z,12.98
2017-03-19T20:28:27.300Z,12.96
2017-03-19T20:29:17.625Z,12.96
2017-03-19T20:30:19.574Z,12.99
2017-03-19T20:31:19.752Z,12.96
2017-03-19T20:32:20.260Z,13.00
2017-03-19T20:33:14.299Z,12.98
2017-03-19T20:34:19.548Z,12.99
2017-03-19T20:35:25.689Z,13.02
2017-03-19T20:36:19.207Z,12.99
2017-03-19T20:37:18.126Z,12.95
2017-03-19T20:38:24.654Z,12.93
2017-03-19T20:39:23.209Z,12.92
2017-03-19T20:40:17.569Z,12.92
2017-03-19T20:41:23.190Z,12.92
2017-03-19T20:42:19.532Z,12.92